メインページ
METAR-TAF:

METAR-TAF

空港 :

昆明, 中華人民共和国

昆明長水国際空港

緯度: 25-01N, 経度: 102-41E, 海抜: 1892m

現時点の気象観測

当レポートは22分前の06:00(UTC)に作成
南西の風 17kt
気温 18°C
湿度 45%
気圧 1019 hPa
視程10km以上
1,500メートル以下は雲なし、積乱雲なし

METAR: ZPPP 140600Z 23009MPS CAVOK 18/06 Q1019 NOSIG

時間: 14:22 (06:22 UTC)

予報

当レポートは5時間2分前の01:20(UTC)に作成
予報は14日の 06時(UTC)から 15日の 06時(UTC)まで有効
南西の風 12kt
視程10km以上
高度2600ftの雲は散在している

TAF: ZPPP 140120Z 1406/1506 22006MPS 9999 SCT026 TX19/1408Z TN06/1423Z

4,000以上の空港の気象観測と天気予報(METAR報とTAF報)

利用可能な観測所は地図上に黄色い丸と赤い丸で示す。

丸の上にカーソルを重ねると観測所名を参照できる。

次にクリックすると気象観測と天気予報を参照できる。

マップの切り替え:黒色「×」印の緑ボタンをクリックして拡大、「-」印の緑ボタンをクリックして縮小、緑色の三角印をクリックして隣りの地図に切り替え


METAR-TAF: